sensor_id;sensor_type;location;lat;lon;timestamp;pressure;altitude;pressure_sealevel;temperature;humidity
18652;BME280;9455;54.302;10.124;2022-07-10T00:01:45;102060.16;;;13.35;80.68
18652;BME280;9455;54.302;10.124;2022-07-10T00:04:11;102059.31;;;13.34;80.76
18652;BME280;9455;54.302;10.124;2022-07-10T00:06:38;102062.59;;;13.27;81.14
18652;BME280;9455;54.302;10.124;2022-07-10T00:09:06;102057.13;;;13.28;81.15
18652;BME280;9455;54.302;10.124;2022-07-10T00:11:33;102063.41;;;13.16;81.56
18652;BME280;9455;54.302;10.124;2022-07-10T00:13:59;102057.22;;;13.16;81.87
18652;BME280;9455;54.302;10.124;2022-07-10T00:16:26;102060.63;;;13.18;81.72
18652;BME280;9455;54.302;10.124;2022-07-10T00:18:54;102053.38;;;12.96;82.36
18652;BME280;9455;54.302;10.124;2022-07-10T00:21:20;102052.38;;;12.97;82.63
18652;BME280;9455;54.302;10.124;2022-07-10T00:23:47;102050.84;;;13.06;82.53
18652;BME280;9455;54.302;10.124;2022-07-10T00:26:14;102047.66;;;13.01;82.57
18652;BME280;9455;54.302;10.124;2022-07-10T00:28:40;102042.72;;;13.07;82.42
18652;BME280;9455;54.302;10.124;2022-07-10T00:31:07;102040.22;;;12.93;82.73
18652;BME280;9455;54.302;10.124;2022-07-10T00:33:35;102044.63;;;13.05;82.86
18652;BME280;9455;54.302;10.124;2022-07-10T00:36:04;102048.56;;;13.12;82.28
18652;BME280;9455;54.302;10.124;2022-07-10T00:38:31;102045.75;;;13.14;82.32
18652;BME280;9455;54.302;10.124;2022-07-10T00:40:58;102045.88;;;13.12;82.51
18652;BME280;9455;54.302;10.124;2022-07-10T00:43:24;102049.06;;;13.17;82.15
18652;BME280;9455;54.302;10.124;2022-07-10T00:45:51;102043.72;;;13.17;82.26
18652;BME280;9455;54.302;10.124;2022-07-10T00:48:17;102050.28;;;13.24;81.88
18652;BME280;9455;54.302;10.124;2022-07-10T00:50:45;102047.09;;;13.19;81.77
18652;BME280;9455;54.302;10.124;2022-07-10T00:53:13;102043.25;;;13.34;81.49
18652;BME280;9455;54.302;10.124;2022-07-10T00:55:41;102049.31;;;13.25;81.75
18652;BME280;9455;54.302;10.124;2022-07-10T00:58:09;102040.66;;;13.22;81.55
18652;BME280;9455;54.302;10.124;2022-07-10T01:00:37;102043.84;;;13.27;81.45
18652;BME280;9455;54.302;10.124;2022-07-10T01:03:04;102030.91;;;13.32;81.27
18652;BME280;9455;54.302;10.124;2022-07-10T01:05:31;102030.69;;;13.35;81.22
18652;BME280;9455;54.302;10.124;2022-07-10T01:07:57;102030.94;;;13.43;80.91
18652;BME280;9455;54.302;10.124;2022-07-10T01:10:25;102030.09;;;13.31;81.19
18652;BME280;9455;54.302;10.124;2022-07-10T01:12:52;102033.00;;;13.39;80.77
18652;BME280;9455;54.302;10.124;2022-07-10T01:15:20;102029.00;;;13.45;80.50
18652;BME280;9455;54.302;10.124;2022-07-10T01:17:46;102031.69;;;13.45;80.91
18652;BME280;9455;54.302;10.124;2022-07-10T01:20:14;102029.50;;;13.50;80.32
18652;BME280;9455;54.302;10.124;2022-07-10T01:22:42;102034.34;;;13.56;80.37
18652;BME280;9455;54.302;10.124;2022-07-10T01:25:09;102033.63;;;13.65;80.14
18652;BME280;9455;54.302;10.124;2022-07-10T01:27:36;102034.59;;;13.53;79.77
18652;BME280;9455;54.302;10.124;2022-07-10T01:30:03;102032.31;;;13.59;79.82
18652;BME280;9455;54.302;10.124;2022-07-10T01:32:36;102026.59;;;13.64;79.59
18652;BME280;9455;54.302;10.124;2022-07-10T01:35:04;102038.53;;;13.71;79.28
18652;BME280;9455;54.302;10.124;2022-07-10T01:37:31;102032.41;;;13.69;79.18
18652;BME280;9455;54.302;10.124;2022-07-10T01:39:59;102029.38;;;13.73;79.55
18652;BME280;9455;54.302;10.124;2022-07-10T01:42:25;102025.34;;;13.68;79.63
18652;BME280;9455;54.302;10.124;2022-07-10T01:44:52;102032.19;;;13.61;79.55
18652;BME280;9455;54.302;10.124;2022-07-10T01:50:02;102026.59;;;13.64;79.57
18652;BME280;9455;54.302;10.124;2022-07-10T01:52:29;102022.28;;;13.61;79.59
18652;BME280;9455;54.302;10.124;2022-07-10T01:54:55;102025.81;;;13.73;79.56
18652;BME280;9455;54.302;10.124;2022-07-10T01:57:23;102020.22;;;13.76;79.43
18652;BME280;9455;54.302;10.124;2022-07-10T01:59:50;102024.84;;;13.74;79.87
18652;BME280;9455;54.302;10.124;2022-07-10T02:02:16;102034.84;;;13.72;79.76
18652;BME280;9455;54.302;10.124;2022-07-10T02:04:43;102017.19;;;13.69;79.44
18652;BME280;9455;54.302;10.124;2022-07-10T02:07:10;102017.31;;;13.68;79.66
18652;BME280;9455;54.302;10.124;2022-07-10T02:09:37;102015.97;;;13.73;79.55
18652;BME280;9455;54.302;10.124;2022-07-10T02:12:05;102008.03;;;13.72;79.50
18652;BME280;9455;54.302;10.124;2022-07-10T02:14:33;102009.38;;;13.66;79.76
18652;BME280;9455;54.302;10.124;2022-07-10T02:17:00;102011.22;;;13.55;80.15
18652;BME280;9455;54.302;10.124;2022-07-10T02:19:26;102004.53;;;13.49;80.25
18652;BME280;9455;54.302;10.124;2022-07-10T02:21:53;102000.38;;;13.56;79.74
18652;BME280;9455;54.302;10.124;2022-07-10T02:24:20;102001.84;;;13.49;79.98
18652;BME280;9455;54.302;10.124;2022-07-10T02:26:47;102003.78;;;13.47;79.64
18652;BME280;9455;54.302;10.124;2022-07-10T02:29:13;102003.41;;;13.41;79.67
18652;BME280;9455;54.302;10.124;2022-07-10T02:31:41;102010.59;;;13.40;79.58
18652;BME280;9455;54.302;10.124;2022-07-10T02:34:08;102010.13;;;13.46;79.88
18652;BME280;9455;54.302;10.124;2022-07-10T02:36:35;102012.16;;;13.43;79.33
18652;BME280;9455;54.302;10.124;2022-07-10T02:39:04;102012.16;;;13.43;79.87
18652;BME280;9455;54.302;10.124;2022-07-10T02:41:30;102015.84;;;13.42;79.24
18652;BME280;9455;54.302;10.124;2022-07-10T02:43:57;102011.94;;;13.46;79.28
18652;BME280;9455;54.302;10.124;2022-07-10T02:46:24;102008.78;;;13.52;79.21
18652;BME280;9455;54.302;10.124;2022-07-10T02:48:52;102014.25;;;13.50;78.78
18652;BME280;9455;54.302;10.124;2022-07-10T02:51:19;102009.75;;;13.62;78.31
18652;BME280;9455;54.302;10.124;2022-07-10T02:53:45;102009.13;;;13.58;78.00
18652;BME280;9455;54.302;10.124;2022-07-10T02:56:12;102001.47;;;13.65;77.72
18652;BME280;9455;54.302;10.124;2022-07-10T02:58:38;101999.03;;;13.51;78.15
18652;BME280;9455;54.302;10.124;2022-07-10T03:01:05;102001.94;;;13.59;77.72
18652;BME280;9455;54.302;10.124;2022-07-10T03:03:32;102003.91;;;13.46;77.99
18652;BME280;9455;54.302;10.124;2022-07-10T03:06:00;102005.50;;;13.48;77.67
18652;BME280;9455;54.302;10.124;2022-07-10T03:08:26;102004.28;;;13.41;77.99
18652;BME280;9455;54.302;10.124;2022-07-10T03:10:53;102012.41;;;13.29;77.53
18652;BME280;9455;54.302;10.124;2022-07-10T03:13:19;102000.50;;;13.33;77.66
18652;BME280;9455;54.302;10.124;2022-07-10T03:15:46;102005.47;;;13.37;77.04
18652;BME280;9455;54.302;10.124;2022-07-10T03:18:13;102012.06;;;13.33;77.16
18652;BME280;9455;54.302;10.124;2022-07-10T03:20:39;102004.63;;;13.26;76.52
18652;BME280;9455;54.302;10.124;2022-07-10T03:23:07;102007.44;;;13.35;75.92
18652;BME280;9455;54.302;10.124;2022-07-10T03:25:34;102008.91;;;13.28;76.12
18652;BME280;9455;54.302;10.124;2022-07-10T03:28:00;102017.53;;;13.43;75.84
18652;BME280;9455;54.302;10.124;2022-07-10T03:30:27;101998.78;;;13.32;75.10
18652;BME280;9455;54.302;10.124;2022-07-10T03:32:54;102005.00;;;13.43;74.77
18652;BME280;9455;54.302;10.124;2022-07-10T03:35:20;102004.88;;;13.45;74.23
18652;BME280;9455;54.302;10.124;2022-07-10T03:37:47;102011.94;;;13.46;73.52
18652;BME280;9455;54.302;10.124;2022-07-10T03:40:15;102005.00;;;13.32;73.94
18652;BME280;9455;54.302;10.124;2022-07-10T03:42:41;102004.13;;;13.43;74.32
18652;BME280;9455;54.302;10.124;2022-07-10T03:45:09;102007.56;;;13.34;74.37
18652;BME280;9455;54.302;10.124;2022-07-10T03:47:35;102013.63;;;13.36;74.24
18652;BME280;9455;54.302;10.124;2022-07-10T03:50:02;102012.91;;;13.34;74.64
18652;BME280;9455;54.302;10.124;2022-07-10T03:52:29;102004.53;;;13.38;74.19
18652;BME280;9455;54.302;10.124;2022-07-10T03:54:56;102002.44;;;13.31;74.43
18652;BME280;9455;54.302;10.124;2022-07-10T03:57:24;102002.19;;;13.34;74.08
18652;BME280;9455;54.302;10.124;2022-07-10T04:00:09;102003.41;;;13.41;74.17
18652;BME280;9455;54.302;10.124;2022-07-10T04:02:36;102000.00;;;13.39;74.02
18652;BME280;9455;54.302;10.124;2022-07-10T04:05:05;101988.91;;;13.21;74.62
18652;BME280;9455;54.302;10.124;2022-07-10T04:07:31;101988.81;;;13.23;74.75
18652;BME280;9455;54.302;10.124;2022-07-10T04:09:58;101982.81;;;13.19;75.37
18652;BME280;9455;54.302;10.124;2022-07-10T04:12:26;101984.03;;;13.15;75.32
18652;BME280;9455;54.302;10.124;2022-07-10T04:14:52;101983.03;;;13.05;75.86
18652;BME280;9455;54.302;10.124;2022-07-10T04:17:19;101988.63;;;13.02;76.33
18652;BME280;9455;54.302;10.124;2022-07-10T04:19:45;101990.41;;;12.91;77.02
18652;BME280;9455;54.302;10.124;2022-07-10T04:22:12;101989.63;;;13.01;77.08
18652;BME280;9455;54.302;10.124;2022-07-10T04:24:39;101991.19;;;13.04;76.84
18652;BME280;9455;54.302;10.124;2022-07-10T04:27:05;101983.78;;;13.07;76.82
18652;BME280;9455;54.302;10.124;2022-07-10T04:29:34;101993.66;;;13.18;76.73
18652;BME280;9455;54.302;10.124;2022-07-10T04:32:01;101985.97;;;13.13;76.87
18652;BME280;9455;54.302;10.124;2022-07-10T04:34:27;101991.59;;;13.21;76.71
18652;BME280;9455;54.302;10.124;2022-07-10T04:36:54;101978.78;;;13.14;77.10
18652;BME280;9455;54.302;10.124;2022-07-10T04:39:20;101981.72;;;13.22;76.67
18652;BME280;9455;54.302;10.124;2022-07-10T04:41:47;101980.66;;;13.24;76.82
18652;BME280;9455;54.302;10.124;2022-07-10T04:44:13;101979.31;;;13.30;76.24
18652;BME280;9455;54.302;10.124;2022-07-10T04:46:41;101983.44;;;13.23;76.39
18652;BME280;9455;54.302;10.124;2022-07-10T04:49:08;101979.53;;;13.16;76.19
18652;BME280;9455;54.302;10.124;2022-07-10T04:51:34;101981.59;;;13.23;75.58
18652;BME280;9455;54.302;10.124;2022-07-10T04:54:01;101985.25;;;13.22;74.38
18652;BME280;9455;54.302;10.124;2022-07-10T04:56:28;101991.84;;;13.18;74.39
18652;BME280;9455;54.302;10.124;2022-07-10T04:58:54;101987.81;;;13.24;74.51
18652;BME280;9455;54.302;10.124;2022-07-10T05:01:21;101989.16;;;13.29;74.73
18652;BME280;9455;54.302;10.124;2022-07-10T05:03:49;101990.72;;;13.21;74.85
18652;BME280;9455;54.302;10.124;2022-07-10T05:06:15;101991.25;;;13.37;74.44
18652;BME280;9455;54.302;10.124;2022-07-10T05:08:42;102000.03;;;13.50;74.22
18652;BME280;9455;54.302;10.124;2022-07-10T05:11:09;101991.00;;;13.51;74.02
18652;BME280;9455;54.302;10.124;2022-07-10T05:13:36;101989.06;;;13.64;73.59
18652;BME280;9455;54.302;10.124;2022-07-10T05:16:02;101986.47;;;13.73;73.18
18652;BME280;9455;54.302;10.124;2022-07-10T05:18:29;101991.47;;;13.67;73.36
18652;BME280;9455;54.302;10.124;2022-07-10T05:20:57;101994.63;;;13.72;73.26
18652;BME280;9455;54.302;10.124;2022-07-10T05:23:24;101993.28;;;13.88;73.06
18652;BME280;9455;54.302;10.124;2022-07-10T05:25:50;101984.72;;;13.95;72.68
18652;BME280;9455;54.302;10.124;2022-07-10T05:28:17;101994.97;;;13.89;72.02
18652;BME280;9455;54.302;10.124;2022-07-10T05:30:44;101991.56;;;13.88;71.43
18652;BME280;9455;54.302;10.124;2022-07-10T05:33:10;101989.59;;;13.89;71.02
18652;BME280;9455;54.302;10.124;2022-07-10T05:35:37;101985.09;;;13.90;70.88
18652;BME280;9455;54.302;10.124;2022-07-10T05:38:04;101988.28;;;13.84;70.84
18652;BME280;9455;54.302;10.124;2022-07-10T05:40:31;101986.06;;;14.00;70.69
18652;BME280;9455;54.302;10.124;2022-07-10T05:42:58;102000.94;;;13.93;70.52
18652;BME280;9455;54.302;10.124;2022-07-10T05:45:25;101984.22;;;13.89;70.66
18652;BME280;9455;54.302;10.124;2022-07-10T05:47:52;101996.78;;;14.00;70.91
18652;BME280;9455;54.302;10.124;2022-07-10T05:50:19;101989.59;;;13.89;70.33
18652;BME280;9455;54.302;10.124;2022-07-10T05:52:45;101992.56;;;13.87;70.55
18652;BME280;9455;54.302;10.124;2022-07-10T05:55:13;101999.94;;;14.05;70.22
18652;BME280;9455;54.302;10.124;2022-07-10T05:57:40;102004.09;;;13.98;70.25
18652;BME280;9455;54.302;10.124;2022-07-10T06:00:08;101994.44;;;14.07;70.14
18652;BME280;9455;54.302;10.124;2022-07-10T06:02:35;101998.59;;;14.11;69.54
18652;BME280;9455;54.302;10.124;2022-07-10T06:05:01;102011.50;;;14.17;69.27
18652;BME280;9455;54.302;10.124;2022-07-10T06:07:28;102010.91;;;14.24;69.29
18652;BME280;9455;54.302;10.124;2022-07-10T06:09:54;101999.44;;;14.33;69.17
18652;BME280;9455;54.302;10.124;2022-07-10T06:12:22;102007.56;;;14.21;68.85
18652;BME280;9455;54.302;10.124;2022-07-10T06:14:49;102011.38;;;14.18;69.13
18652;BME280;9455;54.302;10.124;2022-07-10T06:17:15;102009.91;;;14.25;69.18
18652;BME280;9455;54.302;10.124;2022-07-10T06:19:42;102005.38;;;14.37;68.87
18652;BME280;9455;54.302;10.124;2022-07-10T06:22:08;102003.75;;;14.45;68.53
18652;BME280;9455;54.302;10.124;2022-07-10T06:24:53;102002.81;;;14.35;68.88
18652;BME280;9455;54.302;10.124;2022-07-10T06:27:19;101999.88;;;14.38;69.20
18652;BME280;9455;54.302;10.124;2022-07-10T06:29:47;101995.13;;;14.31;68.53
18652;BME280;9455;54.302;10.124;2022-07-10T06:32:14;101999.94;;;14.27;68.88
18652;BME280;9455;54.302;10.124;2022-07-10T06:34:40;102003.56;;;14.37;69.16
18652;BME280;9455;54.302;10.124;2022-07-10T06:37:07;102003.00;;;14.54;68.02
18652;BME280;9455;54.302;10.124;2022-07-10T06:39:34;102010.50;;;14.60;68.01
18652;BME280;9455;54.302;10.124;2022-07-10T06:42:01;102010.75;;;14.68;67.82
18652;BME280;9455;54.302;10.124;2022-07-10T06:44:28;102002.88;;;14.76;67.87
18652;BME280;9455;54.302;10.124;2022-07-10T06:46:56;102018.13;;;14.76;67.71
18652;BME280;9455;54.302;10.124;2022-07-10T06:49:40;102018.34;;;14.84;67.68
18652;BME280;9455;54.302;10.124;2022-07-10T06:52:07;102015.56;;;14.74;67.25
18652;BME280;9455;54.302;10.124;2022-07-10T06:54:34;102010.63;;;14.90;67.41
18652;BME280;9455;54.302;10.124;2022-07-10T06:57:01;102009.56;;;15.02;67.26
18652;BME280;9455;54.302;10.124;2022-07-10T06:59:28;102018.47;;;15.03;66.52
18652;BME280;9455;54.302;10.124;2022-07-10T07:01:55;102000.91;;;15.19;66.50
18652;BME280;9455;54.302;10.124;2022-07-10T07:04:22;102013.22;;;15.01;66.22
18652;BME280;9455;54.302;10.124;2022-07-10T07:06:49;102006.88;;;15.02;66.04
18652;BME280;9455;54.302;10.124;2022-07-10T07:09:15;102000.78;;;15.00;66.62
18652;BME280;9455;54.302;10.124;2022-07-10T07:11:42;102008.59;;;15.03;66.47
18652;BME280;9455;54.302;10.124;2022-07-10T07:14:08;102008.00;;;15.20;66.34
18652;BME280;9455;54.302;10.124;2022-07-10T07:16:35;102014.22;;;15.00;65.18
18652;BME280;9455;54.302;10.124;2022-07-10T07:19:08;102006.00;;;15.22;65.86
18652;BME280;9455;54.302;10.124;2022-07-10T07:21:37;101999.97;;;15.09;65.08
18652;BME280;9455;54.302;10.124;2022-07-10T07:24:21;102021.56;;;14.98;63.31
18652;BME280;9455;54.302;10.124;2022-07-10T07:26:48;102013.16;;;15.12;63.65
18652;BME280;9455;54.302;10.124;2022-07-10T07:29:15;102010.28;;;15.04;63.13
18652;BME280;9455;54.302;10.124;2022-07-10T07:31:41;102008.00;;;15.20;63.90
18652;BME280;9455;54.302;10.124;2022-07-10T07:34:10;102012.78;;;15.37;62.13
18652;BME280;9455;54.302;10.124;2022-07-10T07:36:37;102013.66;;;15.47;61.60
18652;BME280;9455;54.302;10.124;2022-07-10T07:39:04;102009.22;;;15.16;61.01
18652;BME280;9455;54.302;10.124;2022-07-10T07:41:30;102016.09;;;15.50;61.52
18652;BME280;9455;54.302;10.124;2022-07-10T07:43:57;102008.16;;;15.49;61.76
18652;BME280;9455;54.302;10.124;2022-07-10T07:46:23;102006.31;;;15.49;61.89
18652;BME280;9455;54.302;10.124;2022-07-10T07:48:50;102000.78;;;15.41;62.23
18652;BME280;9455;54.302;10.124;2022-07-10T07:51:18;102004.69;;;15.67;62.13
18652;BME280;9455;54.302;10.124;2022-07-10T07:53:45;101994.59;;;15.90;59.93
18652;BME280;9455;54.302;10.124;2022-07-10T07:56:11;101995.56;;;15.79;59.88
18652;BME280;9455;54.302;10.124;2022-07-10T07:58:38;101990.88;;;15.81;60.57
18652;BME280;9455;54.302;10.124;2022-07-10T08:01:04;101992.75;;;15.90;59.88
18652;BME280;9455;54.302;10.124;2022-07-10T08:03:31;101985.06;;;15.76;59.14
18652;BME280;9455;54.302;10.124;2022-07-10T08:05:57;101983.81;;;15.90;58.36
18652;BME280;9455;54.302;10.124;2022-07-10T08:08:25;101978.91;;;16.04;58.80
18652;BME280;9455;54.302;10.124;2022-07-10T08:10:52;101993.69;;;16.38;60.48
18652;BME280;9455;54.302;10.124;2022-07-10T08:13:19;101982.91;;;16.29;57.50
18652;BME280;9455;54.302;10.124;2022-07-10T08:15:45;101987.44;;;16.28;56.75
18652;BME280;9455;54.302;10.124;2022-07-10T08:18:12;101996.19;;;16.11;56.50
18652;BME280;9455;54.302;10.124;2022-07-10T08:20:38;101987.66;;;15.87;56.61
18652;BME280;9455;54.302;10.124;2022-07-10T08:23:05;101977.50;;;16.00;57.47
18652;BME280;9455;54.302;10.124;2022-07-10T08:25:33;101980.00;;;15.92;56.30
18652;BME280;9455;54.302;10.124;2022-07-10T08:28:00;101981.41;;;15.87;56.24
18652;BME280;9455;54.302;10.124;2022-07-10T08:30:27;101988.78;;;15.94;57.13
18652;BME280;9455;54.302;10.124;2022-07-10T08:32:54;101970.69;;;15.96;56.09
18652;BME280;9455;54.302;10.124;2022-07-10T08:35:21;101974.66;;;16.11;57.10
18652;BME280;9455;54.302;10.124;2022-07-10T08:37:48;101966.19;;;16.16;57.88
18652;BME280;9455;54.302;10.124;2022-07-10T08:40:15;101977.50;;;16.19;55.29
18652;BME280;9455;54.302;10.124;2022-07-10T08:42:45;101975.22;;;16.15;55.98
18652;BME280;9455;54.302;10.124;2022-07-10T08:45:12;101965.63;;;16.31;55.61
18652;BME280;9455;54.302;10.124;2022-07-10T08:47:40;101957.28;;;16.34;55.26
18652;BME280;9455;54.302;10.124;2022-07-10T08:50:16;101976.28;;;16.42;54.25
18652;BME280;9455;54.302;10.124;2022-07-10T08:52:44;101967.66;;;16.49;53.59
18652;BME280;9455;54.302;10.124;2022-07-10T08:55:16;101973.31;;;16.74;53.85
18652;BME280;9455;54.302;10.124;2022-07-10T08:57:45;101984.06;;;16.65;52.57
18652;BME280;9455;54.302;10.124;2022-07-10T09:00:12;101962.66;;;16.82;52.49
18652;BME280;9455;54.302;10.124;2022-07-10T09:02:39;101961.38;;;16.77;52.63
18652;BME280;9455;54.302;10.124;2022-07-10T09:05:06;101972.72;;;16.71;54.85
18652;BME280;9455;54.302;10.124;2022-07-10T09:07:34;101981.66;;;16.81;53.18
18652;BME280;9455;54.302;10.124;2022-07-10T09:10:06;101960.19;;;16.98;52.93
18652;BME280;9455;54.302;10.124;2022-07-10T09:12:49;101965.31;;;16.92;53.29
18652;BME280;9455;54.302;10.124;2022-07-10T09:15:17;101966.47;;;16.89;54.04
18652;BME280;9455;54.302;10.124;2022-07-10T09:17:52;101978.13;;;16.90;53.83
18652;BME280;9455;54.302;10.124;2022-07-10T09:20:27;101955.25;;;16.94;53.02
18652;BME280;9455;54.302;10.124;2022-07-10T09:22:55;101963.63;;;16.91;53.01
18652;BME280;9455;54.302;10.124;2022-07-10T09:25:29;101964.31;;;17.02;53.52
18652;BME280;9455;54.302;10.124;2022-07-10T09:27:57;101957.34;;;17.09;52.95
18652;BME280;9455;54.302;10.124;2022-07-10T09:30:34;101970.22;;;17.15;53.43
18652;BME280;9455;54.302;10.124;2022-07-10T09:33:18;101974.13;;;16.94;52.84
18652;BME280;9455;54.302;10.124;2022-07-10T09:36:04;101971.53;;;17.02;51.95
18652;BME280;9455;54.302;10.124;2022-07-10T09:38:48;101973.84;;;16.97;51.43
18652;BME280;9455;54.302;10.124;2022-07-10T09:41:16;101999.78;;;16.79;51.18
18652;BME280;9455;54.302;10.124;2022-07-10T09:43:45;101974.25;;;16.83;50.49
18652;BME280;9455;54.302;10.124;2022-07-10T09:46:13;101966.56;;;17.16;50.61
18652;BME280;9455;54.302;10.124;2022-07-10T09:48:39;101977.72;;;17.21;50.46
18652;BME280;9455;54.302;10.124;2022-07-10T09:51:07;101988.81;;;17.18;50.95
18652;BME280;9455;54.302;10.124;2022-07-10T09:53:37;101979.47;;;17.13;50.58
18652;BME280;9455;54.302;10.124;2022-07-10T09:56:06;101980.91;;;17.07;51.06
18652;BME280;9455;54.302;10.124;2022-07-10T09:58:33;101987.16;;;17.08;51.45
18652;BME280;9455;54.302;10.124;2022-07-10T10:01:03;101980.00;;;17.26;52.06
18652;BME280;9455;54.302;10.124;2022-07-10T10:03:35;101991.44;;;17.47;51.51
18652;BME280;9455;54.302;10.124;2022-07-10T10:06:03;101984.53;;;17.35;51.28
18652;BME280;9455;54.302;10.124;2022-07-10T10:08:39;101982.78;;;17.53;51.69
18652;BME280;9455;54.302;10.124;2022-07-10T10:11:13;101980.31;;;17.59;52.87
18652;BME280;9455;54.302;10.124;2022-07-10T10:13:41;101989.06;;;17.34;52.14
18652;BME280;9455;54.302;10.124;2022-07-10T10:16:11;101980.91;;;17.53;52.73
18652;BME280;9455;54.302;10.124;2022-07-10T10:18:39;101973.81;;;17.52;52.13
18652;BME280;9455;54.302;10.124;2022-07-10T10:21:27;101992.84;;;17.51;52.79
18652;BME280;9455;54.302;10.124;2022-07-10T10:23:54;101991.88;;;17.33;51.37
18652;BME280;9455;54.302;10.124;2022-07-10T10:26:21;101999.16;;;17.23;51.69
18652;BME280;9455;54.302;10.124;2022-07-10T10:28:51;101991.31;;;17.29;51.81
18652;BME280;9455;54.302;10.124;2022-07-10T10:31:20;101984.78;;;17.41;51.72
18652;BME280;9455;54.302;10.124;2022-07-10T10:33:47;101994.69;;;17.41;52.62
18652;BME280;9455;54.302;10.124;2022-07-10T10:36:47;101995.06;;;17.19;51.19
18652;BME280;9455;54.302;10.124;2022-07-10T10:39:17;101989.00;;;17.53;52.34
18652;BME280;9455;54.302;10.124;2022-07-10T10:41:49;101974.19;;;17.67;51.94
18652;BME280;9455;54.302;10.124;2022-07-10T10:44:29;101999.78;;;17.63;50.77
18652;BME280;9455;54.302;10.124;2022-07-10T10:47:14;101984.91;;;17.49;52.49
18652;BME280;9455;54.302;10.124;2022-07-10T10:49:54;101997.69;;;17.74;52.96
18652;BME280;9455;54.302;10.124;2022-07-10T10:52:24;101991.81;;;17.61;51.42
18652;BME280;9455;54.302;10.124;2022-07-10T10:55:07;101988.13;;;17.62;50.42
18652;BME280;9455;54.302;10.124;2022-07-10T10:57:37;101995.16;;;17.46;51.35
18652;BME280;9455;54.302;10.124;2022-07-10T11:00:06;101993.75;;;17.42;51.01
18652;BME280;9455;54.302;10.124;2022-07-10T11:02:37;101997.53;;;17.39;51.13
18652;BME280;9455;54.302;10.124;2022-07-10T11:05:38;101997.84;;;17.46;51.02
18652;BME280;9455;54.302;10.124;2022-07-10T11:08:07;101987.13;;;17.90;50.30
18652;BME280;9455;54.302;10.124;2022-07-10T11:10:35;101996.72;;;18.02;51.28
18652;BME280;9455;54.302;10.124;2022-07-10T11:13:03;101990.19;;;17.78;52.02
18652;BME280;9455;54.302;10.124;2022-07-10T11:15:31;101996.06;;;17.64;53.71
18652;BME280;9455;54.302;10.124;2022-07-10T11:18:03;101984.47;;;17.81;53.05
18652;BME280;9455;54.302;10.124;2022-07-10T11:20:32;102005.47;;;17.50;52.91
18652;BME280;9455;54.302;10.124;2022-07-10T11:23:13;101993.94;;;17.12;51.68
18652;BME280;9455;54.302;10.124;2022-07-10T11:25:49;101994.31;;;17.36;51.71
18652;BME280;9455;54.302;10.124;2022-07-10T11:28:32;101996.34;;;17.61;50.98
18652;BME280;9455;54.302;10.124;2022-07-10T11:31:05;101983.97;;;17.95;50.60
18652;BME280;9455;54.302;10.124;2022-07-10T11:33:40;101984.31;;;18.27;49.55
18652;BME280;9455;54.302;10.124;2022-07-10T11:36:10;102004.59;;;18.58;51.19
18652;BME280;9455;54.302;10.124;2022-07-10T11:38:39;102006.06;;;18.52;50.90
18652;BME280;9455;54.302;10.124;2022-07-10T11:41:12;102002.78;;;18.49;51.69
18652;BME280;9455;54.302;10.124;2022-07-10T11:43:45;101996.81;;;18.28;51.18
18652;BME280;9455;54.302;10.124;2022-07-10T11:46:12;101993.44;;;18.26;51.33
18652;BME280;9455;54.302;10.124;2022-07-10T11:48:40;101990.19;;;18.22;50.56
18652;BME280;9455;54.302;10.124;2022-07-10T11:51:21;101989.38;;;18.12;51.48
18652;BME280;9455;54.302;10.124;2022-07-10T11:53:56;101999.84;;;18.25;50.64
18652;BME280;9455;54.302;10.124;2022-07-10T11:56:24;101984.88;;;18.30;51.38
18652;BME280;9455;54.302;10.124;2022-07-10T11:58:55;101979.53;;;18.21;50.91
18652;BME280;9455;54.302;10.124;2022-07-10T12:01:22;101991.03;;;18.23;52.01
18652;BME280;9455;54.302;10.124;2022-07-10T12:04:00;101993.97;;;17.85;52.17
18652;BME280;9455;54.302;10.124;2022-07-10T12:06:28;101992.75;;;17.97;51.57
18652;BME280;9455;54.302;10.124;2022-07-10T12:08:55;101980.16;;;18.32;51.18
18652;BME280;9455;54.302;10.124;2022-07-10T12:11:22;101989.81;;;18.87;52.41
18652;BME280;9455;54.302;10.124;2022-07-10T12:13:50;101990.72;;;18.53;48.38
18652;BME280;9455;54.302;10.124;2022-07-10T12:16:17;101990.22;;;18.40;49.98
18652;BME280;9455;54.302;10.124;2022-07-10T12:18:45;102003.25;;;18.00;51.83
18652;BME280;9455;54.302;10.124;2022-07-10T12:21:14;102004.47;;;17.88;53.23
18652;BME280;9455;54.302;10.124;2022-07-10T12:23:43;102001.69;;;17.70;54.25
18652;BME280;9455;54.302;10.124;2022-07-10T12:26:12;101991.88;;;17.79;54.88
18652;BME280;9455;54.302;10.124;2022-07-10T12:28:53;101991.81;;;17.88;55.01
18652;BME280;9455;54.302;10.124;2022-07-10T12:31:21;101989.72;;;18.27;55.46
18652;BME280;9455;54.302;10.124;2022-07-10T12:33:50;101994.53;;;18.68;53.54
18652;BME280;9455;54.302;10.124;2022-07-10T12:36:19;102002.91;;;18.57;52.60
18652;BME280;9455;54.302;10.124;2022-07-10T12:38:53;101992.19;;;18.47;52.99
18652;BME280;9455;54.302;10.124;2022-07-10T12:41:20;102003.75;;;18.40;52.48
18652;BME280;9455;54.302;10.124;2022-07-10T12:43:49;102002.69;;;18.23;52.38
18652;BME280;9455;54.302;10.124;2022-07-10T12:46:18;102007.84;;;18.17;52.73
18652;BME280;9455;54.302;10.124;2022-07-10T12:49:01;102004.19;;;17.81;54.24
18652;BME280;9455;54.302;10.124;2022-07-10T12:51:31;102004.75;;;17.85;54.76
18652;BME280;9455;54.302;10.124;2022-07-10T12:53:58;102009.13;;;17.95;55.28
18652;BME280;9455;54.302;10.124;2022-07-10T12:56:29;102005.72;;;18.11;54.27
18652;BME280;9455;54.302;10.124;2022-07-10T12:58:57;101999.72;;;18.44;52.76
18652;BME280;9455;54.302;10.124;2022-07-10T13:01:23;102012.59;;;18.85;53.10